createdAt,value
2019-05-01T00:04:54.889Z,26.68
2019-05-01T00:10:57.816Z,34.40
2019-05-01T00:17:00.852Z,34.78
2019-05-01T00:23:03.413Z,41.00
2019-05-01T00:29:05.668Z,43.50
2019-05-01T00:35:08.032Z,44.65
2019-05-01T00:41:10.548Z,45.28
2019-05-01T00:47:13.407Z,44.20
2019-05-01T00:53:16.199Z,34.63
2019-05-01T00:59:25.203Z,52.43
2019-05-01T01:05:27.938Z,53.55
2019-05-01T01:11:30.349Z,59.63
2019-05-01T01:17:32.746Z,52.62
2019-05-01T01:23:35.212Z,57.60
2019-05-01T01:29:37.788Z,46.98
2019-05-01T01:35:40.577Z,56.63
2019-05-01T01:41:44.497Z,46.13
2019-05-01T01:48:06.959Z,50.92
2019-05-01T01:54:11.398Z,44.65
2019-05-01T02:00:17.941Z,52.83
2019-05-01T02:06:20.225Z,52.73
2019-05-01T02:12:22.598Z,37.80
2019-05-01T02:18:24.848Z,43.70
2019-05-01T02:24:27.610Z,58.42
2019-05-01T02:30:33.652Z,43.90
2019-05-01T02:36:37.894Z,40.48
2019-05-01T02:42:42.300Z,35.17
2019-05-01T02:48:52.593Z,44.15
2019-05-01T02:54:56.653Z,39.75
2019-05-01T03:00:58.962Z,48.38
2019-05-01T03:07:04.920Z,45.00
2019-05-01T03:13:09.272Z,55.43
2019-05-01T03:19:30.411Z,34.10
2019-05-01T03:25:37.520Z,35.15
2019-05-01T03:31:43.064Z,41.28
2019-05-01T03:37:54.287Z,41.88
2019-05-01T03:44:03.759Z,54.13
2019-05-01T03:50:10.906Z,58.00
2019-05-01T03:56:14.169Z,49.55
2019-05-01T04:08:54.272Z,46.68
2019-05-01T04:15:01.306Z,44.15
2019-05-01T04:21:07.743Z,57.43
2019-05-01T04:27:15.929Z,56.68
2019-05-01T04:33:20.664Z,48.85
2019-05-01T04:39:26.637Z,44.40
2019-05-01T04:51:58.327Z,44.25
2019-05-01T04:58:03.584Z,48.23
2019-05-01T05:04:06.186Z,46.05
2019-05-01T05:10:08.710Z,42.15
2019-05-01T05:16:16.133Z,43.65
2019-05-01T05:22:18.723Z,42.43
2019-05-01T05:28:23.655Z,35.40
2019-05-01T05:34:34.725Z,36.15
2019-05-01T05:41:03.960Z,36.10
2019-05-01T05:47:07.846Z,31.25
2019-05-01T05:53:15.919Z,31.45
2019-05-01T05:59:25.221Z,27.87
2019-05-01T06:05:35.612Z,29.52
2019-05-01T06:11:43.241Z,25.82
2019-05-01T06:17:47.314Z,26.37
2019-05-01T06:24:06.630Z,27.42
2019-05-01T06:30:11.199Z,27.85
2019-05-01T06:36:14.750Z,25.97
2019-05-01T06:42:19.151Z,27.50
2019-05-01T06:48:26.190Z,26.82
2019-05-01T06:54:32.229Z,29.27
2019-05-01T07:00:39.197Z,26.50
2019-05-01T07:06:41.758Z,26.05
2019-05-01T07:12:45.182Z,25.82
2019-05-01T07:18:48.657Z,26.68
2019-05-01T07:24:51.376Z,24.47
2019-05-01T07:30:56.180Z,24.63
2019-05-01T07:36:59.227Z,25.75
2019-05-01T07:43:19.021Z,22.73
2019-05-01T07:49:37.657Z,23.83
2019-05-01T07:55:40.332Z,23.55
2019-05-01T08:01:44.681Z,26.68
2019-05-01T08:07:47.400Z,22.73
2019-05-01T08:13:50.139Z,24.10
2019-05-01T08:19:58.703Z,22.05
2019-05-01T08:26:03.903Z,20.40
2019-05-01T08:32:10.205Z,19.50
2019-05-01T08:38:12.474Z,19.55
2019-05-01T08:44:15.835Z,17.65
2019-05-01T08:50:24.771Z,20.30
2019-05-01T08:56:30.106Z,20.40
2019-05-01T09:02:32.496Z,19.42
2019-05-01T09:08:35.796Z,19.32
2019-05-01T09:14:38.600Z,17.60
2019-05-01T09:20:45.830Z,17.30
2019-05-01T09:27:02.869Z,16.15
2019-05-01T09:33:05.843Z,16.60
2019-05-01T09:39:10.260Z,16.15
2019-05-01T09:45:15.797Z,19.23
2019-05-01T09:51:37.042Z,17.65
2019-05-01T09:57:42.921Z,19.00
2019-05-01T10:03:54.230Z,22.22
2019-05-01T10:09:53.868Z,21.42
2019-05-01T10:15:56.505Z,20.17
2019-05-01T10:22:03.768Z,21.23
2019-05-01T10:28:26.239Z,17.35
2019-05-01T10:34:42.925Z,17.77
2019-05-01T10:40:43.788Z,16.73
2019-05-01T10:46:47.926Z,17.77
2019-05-01T10:52:51.364Z,16.17
2019-05-01T10:58:55.814Z,15.48
2019-05-01T11:04:59.662Z,15.68
2019-05-01T11:11:07.933Z,16.02
2019-05-01T11:17:15.665Z,15.43
2019-05-01T11:23:18.341Z,16.85
2019-05-01T11:29:29.838Z,19.57
2019-05-01T11:35:49.470Z,14.95
2019-05-01T11:41:54.763Z,13.48
2019-05-01T11:47:58.169Z,17.17
2019-05-01T11:54:04.961Z,16.67
2019-05-01T12:00:16.375Z,13.18
2019-05-01T12:06:22.907Z,15.72
2019-05-01T12:12:26.475Z,16.20
2019-05-01T12:18:28.938Z,15.43
2019-05-01T12:24:36.612Z,19.52
2019-05-01T12:30:40.318Z,16.10
2019-05-01T12:36:47.025Z,15.88
2019-05-01T12:42:49.559Z,17.87
2019-05-01T12:48:52.443Z,14.98
2019-05-01T12:54:56.719Z,13.25
2019-05-01T13:00:59.333Z,15.05
2019-05-01T13:07:01.845Z,15.20
2019-05-01T13:13:04.375Z,14.87
2019-05-01T13:19:06.752Z,21.52
2019-05-01T13:25:10.139Z,17.82
2019-05-01T13:31:14.424Z,16.90
2019-05-01T13:37:19.010Z,17.73
2019-05-01T13:43:21.350Z,17.95
2019-05-01T13:49:24.238Z,16.87
2019-05-01T13:55:27.121Z,14.83
2019-05-01T14:01:30.728Z,18.57
2019-05-01T14:07:33.426Z,15.48
2019-05-01T14:13:36.523Z,17.45
2019-05-01T14:19:43.242Z,19.98
2019-05-01T14:26:04.788Z,16.77
2019-05-01T14:32:07.058Z,17.42
2019-05-01T14:38:09.645Z,18.55
2019-05-01T14:44:11.980Z,18.05
2019-05-01T14:50:14.401Z,16.57
2019-05-01T14:56:18.253Z,17.57
2019-05-01T15:02:20.972Z,20.10
2019-05-01T15:08:23.604Z,16.73
2019-05-01T15:14:35.734Z,16.57
2019-05-01T15:20:38.173Z,15.88
2019-05-01T15:26:41.513Z,16.27
2019-05-01T15:32:44.173Z,16.48
2019-05-01T15:38:46.732Z,17.00
2019-05-01T15:44:49.321Z,14.53
2019-05-01T15:50:51.635Z,16.25
2019-05-01T15:56:59.786Z,17.12
2019-05-01T16:03:02.402Z,14.95
2019-05-01T16:09:06.240Z,19.50
2019-05-01T16:15:11.070Z,19.73
2019-05-01T16:21:13.604Z,16.37
2019-05-01T16:27:16.616Z,16.05
2019-05-01T16:33:18.896Z,18.32
2019-05-01T16:39:26.375Z,18.50
2019-05-01T16:45:28.679Z,18.17
2019-05-01T16:51:31.043Z,14.63
2019-05-01T16:57:33.479Z,19.65
2019-05-01T17:03:46.805Z,17.77
2019-05-01T17:10:09.161Z,21.10
2019-05-01T17:16:11.818Z,19.85
2019-05-01T17:22:19.224Z,21.82
2019-05-01T17:28:22.042Z,20.52
2019-05-01T17:34:25.590Z,20.82
2019-05-01T17:40:28.681Z,20.80
2019-05-01T17:46:32.652Z,19.60
2019-05-01T17:52:34.910Z,21.73
2019-05-01T17:58:37.357Z,21.95
2019-05-01T18:04:50.901Z,21.60
2019-05-01T18:11:02.693Z,22.07
2019-05-01T18:17:05.594Z,22.65
2019-05-01T18:23:12.562Z,21.15
2019-05-01T18:29:31.505Z,24.47
2019-05-01T18:35:34.251Z,24.00
2019-05-01T18:41:47.868Z,26.50
2019-05-01T18:47:50.393Z,27.48
2019-05-01T18:53:57.489Z,23.85
2019-05-01T18:59:56.892Z,25.92
2019-05-01T19:05:59.204Z,23.40
2019-05-01T19:12:01.806Z,23.95
2019-05-01T19:18:04.797Z,23.30
2019-05-01T19:24:07.306Z,24.55
2019-05-01T19:30:14.925Z,27.50
2019-05-01T19:36:17.766Z,25.92
2019-05-01T19:42:22.066Z,30.23
2019-05-01T19:48:24.881Z,33.15
2019-05-01T19:54:29.799Z,30.80
2019-05-01T20:00:56.418Z,30.92
2019-05-01T20:07:00.555Z,27.25
2019-05-01T20:13:06.948Z,32.15
2019-05-01T20:19:07.815Z,30.27
2019-05-01T20:25:14.622Z,32.40
2019-05-01T20:31:15.485Z,29.42
2019-05-01T20:37:17.890Z,27.27
2019-05-01T20:43:20.320Z,30.85
2019-05-01T20:49:22.852Z,31.12
2019-05-01T20:55:25.318Z,30.72
2019-05-01T21:01:29.451Z,30.97
2019-05-01T21:07:34.618Z,29.23
2019-05-01T21:13:37.180Z,31.37
2019-05-01T21:19:40.856Z,32.45
2019-05-01T21:25:43.865Z,27.25
2019-05-01T21:31:46.296Z,28.60
2019-05-01T21:37:49.302Z,34.85
2019-05-01T21:43:54.121Z,33.65
2019-05-01T21:49:56.332Z,30.57
2019-05-01T21:56:02.314Z,26.73
2019-05-01T22:02:10.130Z,29.35
2019-05-01T22:08:11.503Z,28.05
2019-05-01T22:14:16.045Z,26.10
2019-05-01T22:20:20.276Z,28.32
2019-05-01T22:26:23.205Z,30.40
2019-05-01T22:32:32.249Z,28.38
2019-05-01T22:38:32.293Z,29.37
2019-05-01T22:44:34.817Z,29.35
2019-05-01T22:50:37.485Z,28.90
2019-05-01T22:56:44.730Z,28.25
2019-05-01T23:02:47.501Z,30.65
2019-05-01T23:08:50.525Z,26.05
2019-05-01T23:14:55.387Z,31.12
2019-05-01T23:20:58.816Z,28.57
2019-05-01T23:27:01.182Z,27.00
2019-05-01T23:33:03.773Z,27.07
2019-05-01T23:39:06.052Z,26.93
2019-05-01T23:45:09.408Z,25.95
2019-05-01T23:51:12.008Z,39.95
2019-05-01T23:57:18.828Z,28.02
